Main page
METAR-TAF:

METAR-TAF

Airports :

Friedrichshafen Airport

Friedrichshafen, Germany

latitude: 47-40N, longitude: 009-31E, elevation: 416 m

Current weather observation

The report was made 23 minutes ago, at 21:50 UTC
Wind 4 kt from the East/Northeast
Temperature 0°C
Humidity 74%
Pressure 1015 hPa
Visibility 10 km or more

METAR: EDNY 012150Z AUTO 07004KT 9999 // NCD 00/M04 Q1015

Time: 00:13 (22:13 UTC)

Forecast

The report was made 5 hours and 13 minutes ago, at 17:00 UTC
Forecast valid from 01 at 18 UTC to 02 at 18 UTC
Wind 3 kt from variable directions
Visibility 10 km or more
no clouds below 1500 m and no cumulonimbus
Becoming
from 02 at 10 UTC to 02 at 12 UTC
Wind 5 kt from the West/Southwest

TAF: EDNY 011700Z 0118/0218 VRB03KT CAVOK BECMG 0210/0212 25005KT

Weather observations and forecasts of more than 4000 airports (METAR and TAF reports).

The available stations are represented by yellow and red dots on the map.

Hover mouse over dot to see the name of the station.

Then click to see weather observations and forecasts.

To change the map : click on the green buttons with a black cross to zoom in, on the green button with a dash to zoom out, or on the green arrows for adjacent maps.


METAR-TAF: